createdAt,value
2022-09-16T00:02:31.804Z,1.02
2022-09-16T00:05:18.882Z,1.08
2022-09-16T00:07:57.557Z,0.95
2022-09-16T00:10:39.725Z,1.10
2022-09-16T00:13:17.728Z,0.90
2022-09-16T00:15:54.728Z,1.00
2022-09-16T00:18:30.042Z,1.13
2022-09-16T00:21:05.211Z,1.10
2022-09-16T00:23:40.613Z,1.00
2022-09-16T00:26:15.989Z,1.05
2022-09-16T00:28:56.526Z,1.30
2022-09-16T00:31:32.144Z,1.30
2022-09-16T00:34:08.907Z,1.23
2022-09-16T00:36:44.225Z,1.00
2022-09-16T00:39:19.505Z,1.20
2022-09-16T00:41:55.123Z,1.10
2022-09-16T00:45:02.538Z,0.98
2022-09-16T00:47:42.926Z,1.00
2022-09-16T00:50:23.028Z,1.30
2022-09-16T00:52:59.949Z,0.90
2022-09-16T00:55:39.606Z,1.10
2022-09-16T00:58:22.456Z,1.10
2022-09-16T01:01:00.239Z,1.00
2022-09-16T01:03:37.518Z,1.10
2022-09-16T01:06:15.662Z,1.10
2022-09-16T01:08:53.885Z,1.00
2022-09-16T01:11:29.261Z,1.23
2022-09-16T01:14:26.548Z,1.17
2022-09-16T01:17:14.520Z,1.00
2022-09-16T01:19:59.126Z,1.00
2022-09-16T01:22:46.100Z,1.10
2022-09-16T01:25:26.965Z,1.20
2022-09-16T01:28:30.786Z,1.45
2022-09-16T01:31:13.826Z,1.13
2022-09-16T01:33:55.059Z,1.10
2022-09-16T01:36:50.885Z,1.10
2022-09-16T01:39:32.820Z,1.00
2022-09-16T01:42:24.506Z,1.13
2022-09-16T01:45:03.665Z,1.10
2022-09-16T01:47:43.609Z,1.10
2022-09-16T01:50:23.082Z,1.20
2022-09-16T01:53:01.130Z,1.00
2022-09-16T01:55:39.357Z,1.00
2022-09-16T01:58:19.652Z,1.00
2022-09-16T02:00:59.327Z,1.00
2022-09-16T02:03:38.807Z,1.00
2022-09-16T02:06:14.835Z,1.00
2022-09-16T02:08:52.592Z,1.10
2022-09-16T02:11:27.180Z,1.05
2022-09-16T02:14:04.410Z,0.90
2022-09-16T02:16:41.121Z,1.00
2022-09-16T02:19:21.896Z,0.90
2022-09-16T02:21:57.028Z,0.93
2022-09-16T02:24:35.637Z,1.08
2022-09-16T02:27:15.135Z,1.20
2022-09-16T02:29:54.008Z,1.00
2022-09-16T02:32:32.068Z,0.90
2022-09-16T02:35:17.601Z,1.10
2022-09-16T02:37:57.876Z,0.95
2022-09-16T02:40:38.825Z,0.98
2022-09-16T02:43:14.896Z,1.00
2022-09-16T02:45:56.992Z,1.00
2022-09-16T02:48:40.127Z,0.80
2022-09-16T02:51:25.631Z,1.10
2022-09-16T02:54:02.821Z,1.05
2022-09-16T02:56:40.555Z,1.08
2022-09-16T02:59:19.446Z,1.10
2022-09-16T03:01:54.840Z,1.20
2022-09-16T03:04:30.072Z,1.10
2022-09-16T03:07:12.398Z,1.20
2022-09-16T03:09:50.685Z,1.00
2022-09-16T03:12:45.800Z,1.00
2022-09-16T03:15:36.149Z,1.00
2022-09-16T03:18:46.212Z,1.00
2022-09-16T03:21:26.743Z,1.00
2022-09-16T03:24:13.357Z,1.25
2022-09-16T03:26:53.839Z,1.00
2022-09-16T03:29:35.676Z,1.00
2022-09-16T03:32:17.191Z,0.90
2022-09-16T03:34:55.987Z,0.90
2022-09-16T03:37:37.200Z,0.90
2022-09-16T03:40:17.393Z,0.75
2022-09-16T03:42:51.887Z,0.90
2022-09-16T03:45:28.576Z,0.90
2022-09-16T03:48:04.003Z,0.80
2022-09-16T03:50:39.441Z,0.80
2022-09-16T03:53:15.521Z,0.90
2022-09-16T03:55:54.189Z,1.05
2022-09-16T03:58:29.376Z,0.90
2022-09-16T04:01:05.092Z,1.10
2022-09-16T04:03:41.320Z,0.82
2022-09-16T04:06:19.038Z,1.20
2022-09-16T04:08:55.065Z,1.10
2022-09-16T04:11:34.018Z,0.90
2022-09-16T04:14:10.766Z,0.80
2022-09-16T04:16:48.997Z,0.80
2022-09-16T04:19:24.421Z,0.90
2022-09-16T04:22:02.763Z,1.00
2022-09-16T04:24:38.199Z,0.82
2022-09-16T04:27:17.428Z,0.90
2022-09-16T04:29:52.870Z,0.85
2022-09-16T04:32:30.156Z,0.90
2022-09-16T04:35:07.141Z,0.85
2022-09-16T04:37:46.761Z,0.80
2022-09-16T04:40:22.296Z,0.82
2022-09-16T04:43:00.209Z,0.90
2022-09-16T04:45:35.615Z,0.90
2022-09-16T04:48:11.271Z,0.80
2022-09-16T04:50:49.603Z,0.90
2022-09-16T04:53:25.270Z,0.80
2022-09-16T04:56:07.279Z,0.90
2022-09-16T04:58:44.711Z,0.80
2022-09-16T05:01:22.418Z,0.70
2022-09-16T05:04:03.439Z,1.00
2022-09-16T05:06:40.004Z,0.80
2022-09-16T05:09:17.114Z,0.90
2022-09-16T05:12:00.481Z,1.00
2022-09-16T05:14:38.532Z,1.13
2022-09-16T05:17:27.676Z,0.77
2022-09-16T05:20:10.571Z,0.88
2022-09-16T05:22:45.845Z,0.90
2022-09-16T05:25:21.338Z,0.88
2022-09-16T05:27:57.171Z,1.00
2022-09-16T05:30:34.393Z,0.93
2022-09-16T05:33:12.119Z,0.93
2022-09-16T05:35:47.770Z,0.80
2022-09-16T05:38:22.931Z,0.93
2022-09-16T05:41:02.619Z,1.00
2022-09-16T05:43:38.401Z,0.80
2022-09-16T05:46:22.927Z,1.00
2022-09-16T05:48:58.822Z,0.98
2022-09-16T05:51:34.270Z,0.90
2022-09-16T05:54:09.685Z,1.00
2022-09-16T05:56:45.210Z,0.90
2022-09-16T05:59:21.786Z,0.98
2022-09-16T06:01:58.814Z,0.80
2022-09-16T06:04:53.025Z,1.00
2022-09-16T06:07:29.609Z,0.90
2022-09-16T06:10:06.811Z,0.90
2022-09-16T06:12:42.158Z,0.80
2022-09-16T06:15:21.665Z,0.80
2022-09-16T06:18:04.191Z,0.82
2022-09-16T06:20:43.718Z,0.82
2022-09-16T06:23:18.936Z,0.80
2022-09-16T06:26:03.177Z,0.93
2022-09-16T06:28:38.812Z,0.80
2022-09-16T06:31:19.039Z,0.75
2022-09-16T06:33:57.267Z,1.00
2022-09-16T06:36:33.563Z,0.73
2022-09-16T06:39:38.193Z,0.95
2022-09-16T06:42:27.232Z,1.20
2022-09-16T06:45:07.636Z,1.10
2022-09-16T06:47:47.128Z,1.08
2022-09-16T06:50:24.413Z,1.00
2022-09-16T06:52:59.486Z,1.15
2022-09-16T06:55:37.551Z,1.10
2022-09-16T07:01:31.527Z,0.90
2022-09-16T07:04:15.184Z,1.05
2022-09-16T07:07:10.638Z,1.63
2022-09-16T07:09:46.155Z,1.33
2022-09-16T07:12:21.190Z,0.98
2022-09-16T07:14:56.910Z,1.50
2022-09-16T07:17:32.338Z,1.30
2022-09-16T07:20:08.035Z,0.95
2022-09-16T07:22:45.328Z,1.08
2022-09-16T07:25:23.125Z,1.35
2022-09-16T07:27:58.717Z,1.27
2022-09-16T07:30:35.957Z,1.10
2022-09-16T07:33:11.201Z,1.00
2022-09-16T07:35:46.919Z,1.00
2022-09-16T07:38:24.048Z,1.25
2022-09-16T07:40:59.467Z,1.10
2022-09-16T07:43:34.871Z,1.17
2022-09-16T07:46:10.825Z,1.38
2022-09-16T07:48:46.415Z,1.50
2022-09-16T07:51:22.858Z,1.20
2022-09-16T07:54:02.420Z,1.40
2022-09-16T07:56:39.986Z,1.40
2022-09-16T07:59:19.637Z,1.80
2022-09-16T08:01:56.660Z,1.20
2022-09-16T08:04:33.512Z,1.30
2022-09-16T08:07:12.304Z,1.25
2022-09-16T08:09:50.797Z,1.30
2022-09-16T08:12:26.810Z,1.42
2022-09-16T08:15:01.919Z,1.20
2022-09-16T08:17:37.912Z,1.30
2022-09-16T08:20:14.275Z,1.60
2022-09-16T08:22:49.826Z,1.45
2022-09-16T08:25:26.815Z,1.60
2022-09-16T08:28:02.225Z,2.10
2022-09-16T08:30:37.655Z,2.03
2022-09-16T08:33:12.781Z,1.60
2022-09-16T08:35:48.416Z,1.60
2022-09-16T08:38:24.114Z,1.80
2022-09-16T08:41:09.809Z,1.63
2022-09-16T08:43:49.260Z,1.98
2022-09-16T08:46:33.524Z,1.83
2022-09-16T08:49:21.202Z,1.40
2022-09-16T08:51:56.870Z,1.30
2022-09-16T08:54:41.134Z,1.70
2022-09-16T08:57:22.034Z,1.80
2022-09-16T08:59:59.815Z,2.00
2022-09-16T09:02:50.373Z,1.90
2022-09-16T09:05:33.941Z,2.63
2022-09-16T09:08:42.590Z,2.70
2022-09-16T09:11:26.536Z,3.15
2022-09-16T09:14:21.332Z,2.22
2022-09-16T09:17:03.667Z,3.05
2022-09-16T09:19:57.327Z,2.97
2022-09-16T09:22:49.076Z,2.35
2022-09-16T09:25:33.236Z,2.33
2022-09-16T09:28:25.064Z,2.50
2022-09-16T09:31:13.461Z,4.43
2022-09-16T09:34:00.240Z,3.50
2022-09-16T09:36:56.605Z,2.47
2022-09-16T09:39:58.670Z,2.63
2022-09-16T09:42:39.364Z,1.98
2022-09-16T09:45:25.997Z,2.15
2022-09-16T09:48:06.910Z,1.95
2022-09-16T09:50:46.138Z,2.30
2022-09-16T09:53:25.279Z,1.83
2022-09-16T09:56:06.847Z,2.00
2022-09-16T09:58:46.915Z,1.80
2022-09-16T10:01:22.573Z,1.88
2022-09-16T10:04:02.222Z,1.92
2022-09-16T10:06:40.359Z,1.95
2022-09-16T10:09:19.539Z,2.25
2022-09-16T10:11:59.437Z,2.05
2022-09-16T10:14:38.306Z,1.88
2022-09-16T10:17:21.640Z,1.70
2022-09-16T10:20:01.581Z,1.80
2022-09-16T10:25:56.031Z,1.80
2022-09-16T10:28:32.135Z,1.55
2022-09-16T10:31:11.677Z,1.58
2022-09-16T10:33:49.892Z,1.77
2022-09-16T10:36:33.136Z,1.60
2022-09-16T10:39:22.176Z,1.50
2022-09-16T10:42:02.908Z,1.80
2022-09-16T10:44:41.909Z,1.60
2022-09-16T10:47:24.755Z,1.70
2022-09-16T10:50:03.480Z,1.50
2022-09-16T10:52:49.358Z,1.50
2022-09-16T10:55:32.335Z,1.58
2022-09-16T10:58:17.545Z,1.60
2022-09-16T11:00:58.311Z,1.27
2022-09-16T11:03:59.066Z,1.30
2022-09-16T11:06:48.335Z,1.50
2022-09-16T11:09:51.806Z,1.40
2022-09-16T11:12:55.465Z,1.30
2022-09-16T11:15:42.103Z,1.38
2022-09-16T11:18:52.227Z,1.38
2022-09-16T11:21:57.666Z,1.40
2022-09-16T11:24:52.953Z,1.35
2022-09-16T11:27:39.083Z,1.33
2022-09-16T11:30:17.780Z,1.25
2022-09-16T11:33:22.052Z,1.80
2022-09-16T11:36:23.814Z,1.20
2022-09-16T11:39:11.114Z,1.30
2022-09-16T11:41:55.394Z,1.20
2022-09-16T11:44:48.063Z,1.30
2022-09-16T11:47:39.862Z,1.10
2022-09-16T11:50:36.767Z,1.17
2022-09-16T11:53:30.116Z,1.10
2022-09-16T11:56:11.868Z,1.30
2022-09-16T11:58:55.552Z,1.30
2022-09-16T12:01:36.248Z,1.30
2022-09-16T12:04:16.663Z,1.30
2022-09-16T12:06:56.138Z,1.27
2022-09-16T12:09:36.114Z,1.20
2022-09-16T12:12:21.017Z,1.60
2022-09-16T12:15:03.203Z,1.10
2022-09-16T12:17:42.453Z,1.00
2022-09-16T12:20:20.734Z,1.30
2022-09-16T12:22:59.350Z,1.38
2022-09-16T12:25:37.164Z,1.30
2022-09-16T12:28:17.851Z,1.13
2022-09-16T12:30:59.136Z,1.38
2022-09-16T12:33:36.950Z,1.33
2022-09-16T12:36:14.604Z,1.20
2022-09-16T12:38:49.563Z,1.00
2022-09-16T12:41:37.322Z,1.10
2022-09-16T12:44:33.864Z,1.20
2022-09-16T12:47:31.793Z,1.20
2022-09-16T12:50:25.828Z,1.05
2022-09-16T12:53:39.691Z,1.10
2022-09-16T12:56:24.907Z,1.10
2022-09-16T12:59:28.986Z,1.10
2022-09-16T13:02:04.952Z,1.00
2022-09-16T13:04:43.962Z,1.17
2022-09-16T13:07:25.325Z,1.00
2022-09-16T13:10:08.443Z,1.00
2022-09-16T13:12:44.806Z,1.00
2022-09-16T13:15:28.477Z,1.15
2022-09-16T13:18:13.416Z,0.95
2022-09-16T13:20:54.030Z,0.80
2022-09-16T13:23:29.684Z,0.85
2022-09-16T13:26:04.758Z,1.10
2022-09-16T13:28:45.941Z,0.80
2022-09-16T13:31:26.113Z,0.90
2022-09-16T13:34:08.746Z,0.80
2022-09-16T13:36:46.027Z,1.10
2022-09-16T13:39:32.626Z,0.90
2022-09-16T13:42:15.973Z,0.80
2022-09-16T13:44:50.771Z,0.80
2022-09-16T13:47:41.168Z,1.08
2022-09-16T13:50:18.463Z,0.90
2022-09-16T13:52:55.732Z,1.00
2022-09-16T13:55:31.501Z,1.00
2022-09-16T13:58:11.738Z,0.80
2022-09-16T14:00:50.671Z,0.68
2022-09-16T14:03:39.086Z,0.80
2022-09-16T14:06:25.406Z,0.80
2022-09-16T14:09:04.259Z,1.00
2022-09-16T14:11:45.445Z,1.00
2022-09-16T14:14:45.755Z,0.80
2022-09-16T14:17:21.938Z,0.95
2022-09-16T14:19:57.950Z,0.75
2022-09-16T14:22:33.548Z,0.80
2022-09-16T14:25:29.497Z,1.05
2022-09-16T14:28:21.782Z,0.90
2022-09-16T14:30:58.317Z,0.77
2022-09-16T14:33:34.137Z,0.60
2022-09-16T14:36:16.284Z,0.77
2022-09-16T14:38:55.917Z,0.65
2022-09-16T14:41:36.234Z,0.80
2022-09-16T14:44:22.074Z,0.80
2022-09-16T14:47:09.078Z,0.90
2022-09-16T14:49:48.069Z,0.95
2022-09-16T14:52:24.489Z,0.77
2022-09-16T14:55:01.635Z,0.80
2022-09-16T14:57:36.622Z,0.90
2022-09-16T15:00:18.751Z,0.90
2022-09-16T15:02:54.773Z,0.80
2022-09-16T15:05:31.644Z,0.88
2022-09-16T15:08:14.765Z,0.90
2022-09-16T15:10:52.888Z,0.88
2022-09-16T15:13:47.111Z,0.80
2022-09-16T15:16:24.184Z,0.90
2022-09-16T15:19:00.166Z,0.90
2022-09-16T15:21:35.929Z,1.02
2022-09-16T15:24:15.269Z,0.90
2022-09-16T15:26:50.504Z,0.90
2022-09-16T15:29:33.695Z,0.90
2022-09-16T15:32:24.239Z,0.85
2022-09-16T15:35:08.604Z,1.00
2022-09-16T15:37:43.500Z,0.80
2022-09-16T15:40:28.149Z,0.90
2022-09-16T15:43:11.460Z,0.90
2022-09-16T15:45:46.625Z,0.82
2022-09-16T15:48:24.650Z,0.80
2022-09-16T15:51:01.308Z,0.70
2022-09-16T15:53:47.931Z,0.90
2022-09-16T15:56:31.458Z,0.80
2022-09-16T15:59:07.315Z,0.70
2022-09-16T16:01:46.898Z,0.90
2022-09-16T16:04:31.754Z,0.80
2022-09-16T16:07:06.446Z,0.98
2022-09-16T16:09:43.094Z,0.90
2022-09-16T16:12:20.190Z,0.70
2022-09-16T16:14:54.872Z,0.90
2022-09-16T16:17:29.152Z,1.05
2022-09-16T16:20:05.633Z,1.05
2022-09-16T16:22:40.924Z,0.90
2022-09-16T16:25:15.615Z,0.88
2022-09-16T16:27:50.458Z,0.90
2022-09-16T16:30:25.474Z,1.10
2022-09-16T16:33:03.550Z,1.00
2022-09-16T16:35:39.876Z,0.90
2022-09-16T16:38:14.526Z,1.00
2022-09-16T16:40:55.362Z,1.00
2022-09-16T16:43:29.941Z,0.80
2022-09-16T16:46:04.946Z,0.90
2022-09-16T16:48:39.586Z,1.10
2022-09-16T16:51:17.819Z,1.00
2022-09-16T16:53:56.081Z,0.88
2022-09-16T16:56:32.911Z,0.90
2022-09-16T16:59:09.627Z,1.05
2022-09-16T17:01:48.791Z,1.02
2022-09-16T17:04:23.802Z,0.85
2022-09-16T17:07:24.087Z,0.98
2022-09-16T17:09:54.835Z,0.90
2022-09-16T17:12:29.509Z,0.90
2022-09-16T17:15:05.557Z,0.80
2022-09-16T17:17:43.561Z,0.90
2022-09-16T17:20:18.085Z,0.93
2022-09-16T17:22:54.751Z,0.93
2022-09-16T17:25:30.280Z,0.98
2022-09-16T17:28:04.596Z,0.80
2022-09-16T17:30:39.275Z,1.10
2022-09-16T17:33:13.644Z,0.65
2022-09-16T17:35:48.818Z,0.80
2022-09-16T17:38:25.327Z,0.82
2022-09-16T17:41:06.195Z,0.90
2022-09-16T17:43:40.546Z,0.93
2022-09-16T17:46:18.868Z,0.77
2022-09-16T17:48:54.621Z,0.80
2022-09-16T17:51:28.911Z,0.80
2022-09-16T17:54:05.332Z,0.98
2022-09-16T17:56:40.086Z,1.00
2022-09-16T17:59:14.772Z,0.90
2022-09-16T18:01:49.271Z,0.90
2022-09-16T18:04:23.642Z,0.85
2022-09-16T18:06:58.177Z,0.85
2022-09-16T18:09:34.367Z,1.08
2022-09-16T18:12:09.118Z,0.90
2022-09-16T18:14:43.586Z,0.85
2022-09-16T18:17:20.439Z,0.90
2022-09-16T18:19:55.630Z,0.90
2022-09-16T18:22:30.422Z,0.90
2022-09-16T18:25:09.747Z,0.80
2022-09-16T18:27:44.411Z,0.82
2022-09-16T18:30:19.354Z,0.70
2022-09-16T18:32:54.407Z,0.95
2022-09-16T18:35:28.677Z,0.90
2022-09-16T18:38:03.336Z,0.90
2022-09-16T18:40:40.539Z,0.90
2022-09-16T18:43:15.334Z,0.73
2022-09-16T18:45:49.799Z,0.80
2022-09-16T18:48:24.697Z,0.88
2022-09-16T18:51:00.019Z,0.73
2022-09-16T18:53:34.267Z,0.82
2022-09-16T18:56:10.965Z,0.90
2022-09-16T18:58:58.215Z,0.70
2022-09-16T19:01:40.399Z,0.80
2022-09-16T19:04:18.719Z,0.80
2022-09-16T19:06:55.363Z,0.82
2022-09-16T19:09:30.909Z,0.82
2022-09-16T19:12:08.973Z,0.93
2022-09-16T19:14:46.611Z,0.80
2022-09-16T19:17:40.781Z,1.00
2022-09-16T19:20:16.742Z,0.80
2022-09-16T19:22:54.579Z,1.00
2022-09-16T19:25:30.002Z,0.90
2022-09-16T19:28:07.203Z,0.80
2022-09-16T19:30:42.611Z,0.88
2022-09-16T19:33:17.787Z,0.90
2022-09-16T19:35:52.891Z,0.80
2022-09-16T19:38:30.127Z,0.90
2022-09-16T19:41:08.370Z,0.80
2022-09-16T19:43:46.137Z,1.10
2022-09-16T19:46:23.100Z,0.90
2022-09-16T19:48:58.852Z,0.90
2022-09-16T19:51:36.911Z,0.80
2022-09-16T19:54:12.366Z,0.88
2022-09-16T19:56:50.604Z,0.70
2022-09-16T19:59:31.482Z,0.95
2022-09-16T20:02:08.323Z,1.10
2022-09-16T20:04:43.640Z,1.00
2022-09-16T20:07:19.002Z,1.00
2022-09-16T20:09:54.355Z,0.90
2022-09-16T20:12:31.131Z,0.70
2022-09-16T20:15:09.081Z,0.85
2022-09-16T20:17:51.084Z,0.90
2022-09-16T20:20:26.390Z,0.90
2022-09-16T20:23:01.319Z,0.90
2022-09-16T20:25:36.266Z,1.10
2022-09-16T20:28:12.243Z,1.00
2022-09-16T20:30:52.118Z,0.98
2022-09-16T20:33:30.131Z,1.10
2022-09-16T20:36:09.140Z,1.00
2022-09-16T20:38:45.072Z,0.85
2022-09-16T20:41:20.793Z,0.95
2022-09-16T20:43:56.552Z,0.90
2022-09-16T20:46:34.972Z,0.95
2022-09-16T20:49:12.318Z,0.90
2022-09-16T20:51:48.073Z,1.05
2022-09-16T20:54:23.638Z,1.10
2022-09-16T20:57:00.883Z,0.95
2022-09-16T20:59:38.350Z,1.00
2022-09-16T21:02:27.842Z,0.80
2022-09-16T21:05:06.337Z,0.75
2022-09-16T21:07:44.519Z,1.15
2022-09-16T21:10:26.478Z,1.17
2022-09-16T21:13:02.993Z,0.85
2022-09-16T21:16:04.561Z,1.05
2022-09-16T21:19:10.828Z,0.77
2022-09-16T21:21:53.174Z,0.80
2022-09-16T21:24:29.840Z,0.90
2022-09-16T21:27:07.742Z,0.90
2022-09-16T21:29:54.993Z,1.00
2022-09-16T21:32:32.887Z,0.85
2022-09-16T21:35:19.281Z,1.20
2022-09-16T21:38:00.500Z,1.00
2022-09-16T21:40:47.812Z,1.10
2022-09-16T21:43:25.688Z,0.90
2022-09-16T21:46:14.637Z,1.10
2022-09-16T21:48:53.809Z,0.98
2022-09-16T21:51:39.621Z,1.08
2022-09-16T21:54:20.524Z,1.08
2022-09-16T21:57:00.974Z,1.15
2022-09-16T21:59:36.223Z,1.00
2022-09-16T22:02:13.040Z,1.10
2022-09-16T22:05:01.570Z,1.10
2022-09-16T22:07:52.005Z,1.00
2022-09-16T22:10:39.676Z,1.20
2022-09-16T22:13:17.880Z,1.00
2022-09-16T22:15:56.411Z,1.13
2022-09-16T22:18:42.152Z,1.02
2022-09-16T22:21:18.857Z,1.00
2022-09-16T22:23:56.684Z,1.13
2022-09-16T22:26:33.599Z,1.00
2022-09-16T22:29:27.479Z,1.20
2022-09-16T22:32:13.043Z,1.10
2022-09-16T22:34:51.643Z,0.98
2022-09-16T22:37:53.785Z,1.02
2022-09-16T22:40:39.466Z,1.05
2022-09-16T22:43:24.403Z,0.93
2022-09-16T22:46:26.794Z,1.00
2022-09-16T22:49:03.178Z,1.17
2022-09-16T22:51:41.138Z,1.00
2022-09-16T22:54:24.976Z,0.93
2022-09-16T22:57:09.192Z,1.02
2022-09-16T22:59:48.400Z,1.10
2022-09-16T23:02:26.075Z,1.00
2022-09-16T23:05:01.723Z,1.20
2022-09-16T23:07:37.181Z,1.10
2022-09-16T23:10:13.875Z,1.23
2022-09-16T23:12:53.079Z,1.00
2022-09-16T23:15:29.872Z,1.20
2022-09-16T23:18:07.709Z,1.00
2022-09-16T23:20:44.531Z,0.95
2022-09-16T23:23:21.716Z,1.00
2022-09-16T23:26:17.953Z,1.17
2022-09-16T23:28:56.130Z,1.00
2022-09-16T23:31:31.687Z,1.10
2022-09-16T23:34:09.217Z,1.08
2022-09-16T23:36:44.162Z,1.20
2022-09-16T23:39:19.074Z,1.00
2022-09-16T23:41:54.074Z,1.30
2022-09-16T23:44:30.581Z,1.35
2022-09-16T23:47:12.121Z,0.90
2022-09-16T23:49:46.726Z,1.42
2022-09-16T23:52:21.157Z,1.30
2022-09-16T23:54:55.470Z,1.20
2022-09-16T23:57:30.048Z,1.15
